createdAt,value
2023-05-03T04:55:10.745Z,4.70
2023-05-03T05:00:16.005Z,4.95
2023-05-03T05:05:20.507Z,4.82
2023-05-03T05:10:26.298Z,4.72
2023-05-03T05:15:29.761Z,4.65
2023-05-03T05:20:33.558Z,5.00
2023-05-03T05:25:38.588Z,5.65
2023-05-03T05:30:42.601Z,4.47
2023-05-03T05:35:46.783Z,5.13
2023-05-03T05:40:51.677Z,4.38
2023-05-03T05:45:55.220Z,4.15
2023-05-03T05:50:58.649Z,4.95
2023-05-03T05:56:03.491Z,4.63
2023-05-03T06:01:07.389Z,4.80
2023-05-03T06:06:10.853Z,4.35
2023-05-03T06:11:15.817Z,4.53
2023-05-03T06:16:19.271Z,4.40
2023-05-03T06:21:22.775Z,4.30
2023-05-03T06:26:27.636Z,4.25
2023-05-03T06:31:31.488Z,4.70
2023-05-03T06:36:35.667Z,4.50
2023-05-03T06:41:40.705Z,4.68
2023-05-03T06:46:44.154Z,4.03
2023-05-03T06:51:47.676Z,4.10
2023-05-03T06:56:52.483Z,4.50
2023-05-03T07:01:55.932Z,3.92
2023-05-03T07:06:59.447Z,3.88
2023-05-03T07:12:04.737Z,3.67
2023-05-03T07:17:08.480Z,3.28
2023-05-03T07:22:13.663Z,3.78
2023-05-03T07:27:19.158Z,3.50
2023-05-03T07:32:22.878Z,3.67
2023-05-03T07:37:27.837Z,3.13
2023-05-03T07:42:32.741Z,3.05
2023-05-03T07:47:38.268Z,3.13
2023-05-03T07:52:43.414Z,4.07
2023-05-03T07:57:48.270Z,3.20
2023-05-03T08:02:52.097Z,3.67
2023-05-03T08:07:55.957Z,3.65
2023-05-03T08:13:01.055Z,2.40
2023-05-03T08:18:04.696Z,2.45
2023-05-03T08:23:08.192Z,2.35
2023-05-03T08:28:13.072Z,2.13
2023-05-03T08:33:16.754Z,2.53
2023-05-03T08:38:20.581Z,2.50
2023-05-03T08:43:28.464Z,2.50
2023-05-03T08:48:32.826Z,2.92
2023-05-03T08:53:36.516Z,2.38
2023-05-03T08:58:41.294Z,2.38
2023-05-03T09:03:50.636Z,2.50
2023-05-03T09:08:54.700Z,2.50
2023-05-03T09:14:11.474Z,2.83
2023-05-03T09:19:16.348Z,2.80
2023-05-03T09:24:22.233Z,2.17
2023-05-03T09:29:31.774Z,2.20
2023-05-03T09:34:37.157Z,2.50
2023-05-03T09:39:42.079Z,3.00
2023-05-03T09:44:51.528Z,3.10
2023-05-03T09:49:55.548Z,4.00
2023-05-03T09:54:59.212Z,2.85
2023-05-03T10:00:08.717Z,2.60
2023-05-03T10:05:13.910Z,2.55
2023-05-03T10:10:18.223Z,2.60
2023-05-03T10:15:25.189Z,2.80
2023-05-03T10:20:34.386Z,2.78
2023-05-03T10:25:39.547Z,2.80
2023-05-03T10:30:44.319Z,2.22
2023-05-03T10:35:53.349Z,2.40
2023-05-03T10:40:57.590Z,2.60
2023-05-03T10:46:03.173Z,2.55
2023-05-03T10:51:37.140Z,2.70
2023-05-03T10:56:54.618Z,2.70
2023-05-03T11:02:00.927Z,2.50
2023-05-03T11:07:04.708Z,2.20
2023-05-03T11:12:09.687Z,2.60
2023-05-03T11:17:15.032Z,3.00
2023-05-03T11:22:18.483Z,2.13
2023-05-03T11:27:25.327Z,2.20
2023-05-03T11:32:31.479Z,2.70
2023-05-03T11:37:35.481Z,2.90
2023-05-03T11:42:52.159Z,2.22
2023-05-03T11:47:59.369Z,2.80
2023-05-03T11:53:03.020Z,2.58
2023-05-03T11:58:09.926Z,2.88
2023-05-03T12:03:20.203Z,3.55
2023-05-03T12:08:30.193Z,3.45
2023-05-03T12:13:38.806Z,2.88
2023-05-03T12:18:51.457Z,2.15
2023-05-03T12:23:57.338Z,2.80
2023-05-03T12:29:02.197Z,2.92
2023-05-03T12:34:31.779Z,3.20
2023-05-03T12:39:32.972Z,2.88
2023-05-03T12:44:37.316Z,2.17
2023-05-03T12:49:46.435Z,3.35
2023-05-03T12:54:53.681Z,2.38
2023-05-03T13:00:03.401Z,2.30
2023-05-03T13:05:14.462Z,2.40
2023-05-03T13:10:27.293Z,1.95
2023-05-03T13:15:31.285Z,2.45
2023-05-03T13:20:37.482Z,2.60
2023-05-03T13:25:41.033Z,2.45
2023-05-03T13:30:44.612Z,2.47
2023-05-03T13:35:49.580Z,2.08
2023-05-03T13:40:53.314Z,2.38
2023-05-03T13:46:01.992Z,2.85
2023-05-03T13:51:10.432Z,2.35
2023-05-03T13:56:14.348Z,2.95
2023-05-03T14:01:18.886Z,2.33
2023-05-03T14:06:24.509Z,2.20
2023-05-03T14:11:28.480Z,2.10
2023-05-03T14:21:43.244Z,1.92
2023-05-03T14:26:46.815Z,1.92
2023-05-03T14:31:50.466Z,1.90
2023-05-03T14:36:56.274Z,1.95
2023-05-03T14:41:59.760Z,1.52
2023-05-03T14:47:03.638Z,1.60
2023-05-03T14:52:08.875Z,2.03
2023-05-03T14:57:12.389Z,1.70
2023-05-03T15:02:15.889Z,1.77
2023-05-03T15:07:21.266Z,1.63
2023-05-03T15:12:25.946Z,1.70
2023-05-03T15:17:30.934Z,1.60
2023-05-03T15:22:37.002Z,1.40
2023-05-03T15:27:40.923Z,1.95
2023-05-03T15:32:44.902Z,2.05
2023-05-03T15:37:49.674Z,1.80
2023-05-03T15:42:53.127Z,2.10
2023-05-03T15:47:57.159Z,1.70
2023-05-03T15:53:02.021Z,2.85
2023-05-03T15:58:07.490Z,2.25
2023-05-03T16:03:11.046Z,1.83
2023-05-03T16:08:16.269Z,2.40
2023-05-03T16:13:20.071Z,2.40
2023-05-03T16:18:24.164Z,2.17
2023-05-03T16:23:29.538Z,2.65
2023-05-03T16:28:33.309Z,2.20
2023-05-03T16:33:36.818Z,2.30
2023-05-03T16:38:41.620Z,2.65
2023-05-03T16:43:45.215Z,2.40
2023-05-03T16:48:48.721Z,2.40
2023-05-03T16:53:54.246Z,2.58
2023-05-03T16:58:59.202Z,2.65
2023-05-03T17:04:02.833Z,2.20
2023-05-03T17:09:07.579Z,2.25
2023-05-03T17:14:11.737Z,2.20
2023-05-03T17:19:15.292Z,2.10
2023-05-03T17:24:20.132Z,2.78
2023-05-03T17:29:23.637Z,2.20
2023-05-03T17:34:27.863Z,2.72
2023-05-03T17:39:32.918Z,2.42
2023-05-03T17:44:36.383Z,2.83
2023-05-03T17:49:39.841Z,2.47
2023-05-03T17:54:46.221Z,2.38
2023-05-03T17:59:49.761Z,2.92
2023-05-03T18:04:54.447Z,2.83
2023-05-03T18:09:59.725Z,2.85
2023-05-03T18:15:06.184Z,3.50
2023-05-03T18:20:10.710Z,4.22
2023-05-03T18:25:16.110Z,4.60
2023-05-03T18:30:19.653Z,5.00
2023-05-03T18:35:23.636Z,5.70
2023-05-03T18:40:30.093Z,6.18
2023-05-03T18:45:33.907Z,6.35
2023-05-03T18:50:38.399Z,5.43
2023-05-03T18:55:43.282Z,5.10
2023-05-03T19:00:47.089Z,5.80
2023-05-03T19:05:50.513Z,6.55
2023-05-03T19:10:55.412Z,6.45
2023-05-03T19:15:58.816Z,6.47
2023-05-03T19:21:02.218Z,6.82
2023-05-03T19:26:07.206Z,6.88
2023-05-03T19:31:10.861Z,8.25
2023-05-03T19:36:15.038Z,9.15
2023-05-03T19:41:20.157Z,9.65
2023-05-03T19:46:23.888Z,7.93
2023-05-03T19:51:27.882Z,7.47
2023-05-03T19:56:32.793Z,7.95
2023-05-03T20:01:36.230Z,8.02
2023-05-03T20:06:39.886Z,9.35
2023-05-03T20:11:44.687Z,8.73
2023-05-03T20:16:48.391Z,7.00
2023-05-03T20:21:53.935Z,6.25
2023-05-03T20:26:59.433Z,7.03
2023-05-03T20:32:03.076Z,6.00
2023-05-03T20:37:06.633Z,7.80
2023-05-03T20:42:11.716Z,8.75
2023-05-03T20:47:15.239Z,10.07
2023-05-03T20:52:19.227Z,9.07
2023-05-03T20:57:24.073Z,9.95
2023-05-03T21:02:27.609Z,9.18
2023-05-03T21:07:31.154Z,9.05
2023-05-03T21:12:36.181Z,9.73
2023-05-03T21:17:40.321Z,8.50
2023-05-03T21:22:44.036Z,9.32
2023-05-03T21:27:49.458Z,8.20
2023-05-03T21:32:53.428Z,10.15
2023-05-03T21:37:56.894Z,9.05
2023-05-03T21:43:04.522Z,9.35
2023-05-03T21:48:08.314Z,9.10
2023-05-03T21:53:11.851Z,9.48
2023-05-03T21:58:16.907Z,9.38
2023-05-03T22:03:20.693Z,8.95
2023-05-03T22:08:24.848Z,9.93
2023-05-03T22:13:29.870Z,9.93
2023-05-03T22:18:33.438Z,9.73
2023-05-03T22:23:36.973Z,10.52
2023-05-03T22:28:42.351Z,10.18
